sensor_id;sensor_type;location;lat;lon;timestamp;P1;durP1;ratioP1;P2;durP2;ratioP2
57155;SDS011;43023;59.928;10.682;2023-04-01T00:00:45;1.17;;;0.75;;
57155;SDS011;43023;59.928;10.682;2023-04-01T00:03:11;0.73;;;0.70;;
57155;SDS011;43023;59.928;10.682;2023-04-01T00:05:37;1.40;;;0.77;;
57155;SDS011;43023;59.928;10.682;2023-04-01T00:08:03;1.85;;;0.80;;
57155;SDS011;43023;59.928;10.682;2023-04-01T00:10:30;1.27;;;0.68;;
57155;SDS011;43023;59.928;10.682;2023-04-01T00:12:56;1.75;;;0.82;;
57155;SDS011;43023;59.928;10.682;2023-04-01T00:15:22;1.13;;;0.63;;
57155;SDS011;43023;59.928;10.682;2023-04-01T00:17:48;4.78;;;1.00;;
57155;SDS011;43023;59.928;10.682;2023-04-01T00:20:14;1.42;;;0.80;;
57155;SDS011;43023;59.928;10.682;2023-04-01T00:22:41;1.10;;;0.50;;
57155;SDS011;43023;59.928;10.682;2023-04-01T00:25:07;0.95;;;0.80;;
57155;SDS011;43023;59.928;10.682;2023-04-01T00:27:33;0.77;;;0.70;;
57155;SDS011;43023;59.928;10.682;2023-04-01T00:30:00;1.38;;;0.60;;
57155;SDS011;43023;59.928;10.682;2023-04-01T00:32:26;0.80;;;0.60;;
57155;SDS011;43023;59.928;10.682;2023-04-01T00:34:52;1.15;;;0.60;;
57155;SDS011;43023;59.928;10.682;2023-04-01T00:37:19;0.50;;;0.50;;
57155;SDS011;43023;59.928;10.682;2023-04-01T00:39:46;1.10;;;0.63;;
57155;SDS011;43023;59.928;10.682;2023-04-01T00:42:12;1.05;;;0.60;;
57155;SDS011;43023;59.928;10.682;2023-04-01T00:44:39;1.00;;;0.50;;
57155;SDS011;43023;59.928;10.682;2023-04-01T00:47:05;2.17;;;0.75;;
57155;SDS011;43023;59.928;10.682;2023-04-01T00:49:39;1.92;;;0.85;;
57155;SDS011;43023;59.928;10.682;2023-04-01T00:52:05;4.80;;;0.75;;
57155;SDS011;43023;59.928;10.682;2023-04-01T00:54:33;2.17;;;0.75;;
57155;SDS011;43023;59.928;10.682;2023-04-01T00:57:01;0.82;;;0.47;;
57155;SDS011;43023;59.928;10.682;2023-04-01T00:59:32;4.50;;;0.90;;
57155;SDS011;43023;59.928;10.682;2023-04-01T01:01:59;1.50;;;0.70;;
57155;SDS011;43023;59.928;10.682;2023-04-01T01:04:27;1.65;;;0.60;;
57155;SDS011;43023;59.928;10.682;2023-04-01T01:09:36;6.05;;;0.75;;
57155;SDS011;43023;59.928;10.682;2023-04-01T01:12:15;1.45;;;0.60;;
57155;SDS011;43023;59.928;10.682;2023-04-01T01:14:52;4.13;;;0.60;;
57155;SDS011;43023;59.928;10.682;2023-04-01T01:17:25;2.53;;;0.70;;
57155;SDS011;43023;59.928;10.682;2023-04-01T01:22:49;0.90;;;0.30;;
57155;SDS011;43023;59.928;10.682;2023-04-01T01:25:22;3.13;;;0.47;;
57155;SDS011;43023;59.928;10.682;2023-04-01T01:28:00;0.40;;;0.40;;
57155;SDS011;43023;59.928;10.682;2023-04-01T01:33:08;1.38;;;0.50;;
57155;SDS011;43023;59.928;10.682;2023-04-01T01:38:12;3.22;;;0.73;;
57155;SDS011;43023;59.928;10.682;2023-04-01T01:40:41;1.20;;;0.60;;
57155;SDS011;43023;59.928;10.682;2023-04-01T01:43:08;3.13;;;1.13;;
57155;SDS011;43023;59.928;10.682;2023-04-01T01:45:36;3.55;;;0.70;;
57155;SDS011;43023;59.928;10.682;2023-04-01T01:48:04;1.02;;;0.40;;
57155;SDS011;43023;59.928;10.682;2023-04-01T01:50:32;1.58;;;0.57;;
57155;SDS011;43023;59.928;10.682;2023-04-01T01:53:01;1.90;;;0.50;;
57155;SDS011;43023;59.928;10.682;2023-04-01T01:55:37;2.08;;;0.63;;
57155;SDS011;43023;59.928;10.682;2023-04-01T01:58:11;2.20;;;0.40;;
57155;SDS011;43023;59.928;10.682;2023-04-01T02:03:42;4.07;;;0.60;;
57155;SDS011;43023;59.928;10.682;2023-04-01T02:06:12;2.13;;;0.70;;
57155;SDS011;43023;59.928;10.682;2023-04-01T02:08:44;2.83;;;0.80;;
57155;SDS011;43023;59.928;10.682;2023-04-01T02:11:12;1.42;;;0.50;;
57155;SDS011;43023;59.928;10.682;2023-04-01T02:14:01;1.98;;;0.63;;
57155;SDS011;43023;59.928;10.682;2023-04-01T02:16:34;1.80;;;0.55;;
57155;SDS011;43023;59.928;10.682;2023-04-01T02:19:02;0.60;;;0.40;;
57155;SDS011;43023;59.928;10.682;2023-04-01T02:21:32;3.08;;;0.65;;
57155;SDS011;43023;59.928;10.682;2023-04-01T02:23:59;2.42;;;0.45;;
57155;SDS011;43023;59.928;10.682;2023-04-01T02:26:26;1.85;;;0.40;;
57155;SDS011;43023;59.928;10.682;2023-04-01T02:28:52;1.13;;;0.43;;
57155;SDS011;43023;59.928;10.682;2023-04-01T02:31:19;0.75;;;0.47;;
57155;SDS011;43023;59.928;10.682;2023-04-01T02:33:45;3.55;;;0.60;;
57155;SDS011;43023;59.928;10.682;2023-04-01T02:36:13;0.65;;;0.40;;
57155;SDS011;43023;59.928;10.682;2023-04-01T02:38:39;0.40;;;0.40;;
57155;SDS011;43023;59.928;10.682;2023-04-01T02:41:06;0.77;;;0.40;;
57155;SDS011;43023;59.928;10.682;2023-04-01T02:43:32;1.00;;;0.50;;
57155;SDS011;43023;59.928;10.682;2023-04-01T02:45:58;1.13;;;0.40;;
57155;SDS011;43023;59.928;10.682;2023-04-01T02:48:25;1.85;;;0.40;;
57155;SDS011;43023;59.928;10.682;2023-04-01T02:50:51;0.75;;;0.57;;
57155;SDS011;43023;59.928;10.682;2023-04-01T02:53:17;1.67;;;0.30;;
57155;SDS011;43023;59.928;10.682;2023-04-01T02:55:43;1.65;;;0.52;;
57155;SDS011;43023;59.928;10.682;2023-04-01T02:58:10;1.27;;;0.40;;
57155;SDS011;43023;59.928;10.682;2023-04-01T03:00:36;1.25;;;0.40;;
57155;SDS011;43023;59.928;10.682;2023-04-01T03:03:03;4.72;;;0.45;;
57155;SDS011;43023;59.928;10.682;2023-04-01T03:05:29;2.80;;;0.60;;
57155;SDS011;43023;59.928;10.682;2023-04-01T03:07:55;1.05;;;0.40;;
57155;SDS011;43023;59.928;10.682;2023-04-01T03:10:21;1.58;;;0.50;;
57155;SDS011;43023;59.928;10.682;2023-04-01T03:12:47;1.33;;;0.60;;
57155;SDS011;43023;59.928;10.682;2023-04-01T03:15:14;2.60;;;0.43;;
57155;SDS011;43023;59.928;10.682;2023-04-01T03:17:40;1.67;;;0.52;;
57155;SDS011;43023;59.928;10.682;2023-04-01T03:20:07;2.25;;;0.60;;
57155;SDS011;43023;59.928;10.682;2023-04-01T03:22:34;1.75;;;0.40;;
57155;SDS011;43023;59.928;10.682;2023-04-01T03:25:01;0.55;;;0.40;;
57155;SDS011;43023;59.928;10.682;2023-04-01T03:27:27;0.88;;;0.63;;
57155;SDS011;43023;59.928;10.682;2023-04-01T03:29:54;4.40;;;0.80;;
57155;SDS011;43023;59.928;10.682;2023-04-01T03:32:20;3.10;;;0.63;;
57155;SDS011;43023;59.928;10.682;2023-04-01T03:34:46;0.88;;;0.50;;
57155;SDS011;43023;59.928;10.682;2023-04-01T03:37:12;1.13;;;0.50;;
57155;SDS011;43023;59.928;10.682;2023-04-01T03:39:39;0.68;;;0.52;;
57155;SDS011;43023;59.928;10.682;2023-04-01T03:42:05;1.77;;;0.82;;
57155;SDS011;43023;59.928;10.682;2023-04-01T03:44:32;0.90;;;0.50;;
57155;SDS011;43023;59.928;10.682;2023-04-01T03:46:58;0.50;;;0.40;;
57155;SDS011;43023;59.928;10.682;2023-04-01T03:49:24;1.48;;;0.68;;
57155;SDS011;43023;59.928;10.682;2023-04-01T03:51:51;1.13;;;0.47;;
57155;SDS011;43023;59.928;10.682;2023-04-01T03:54:17;2.42;;;0.60;;
57155;SDS011;43023;59.928;10.682;2023-04-01T03:56:45;1.83;;;0.50;;
57155;SDS011;43023;59.928;10.682;2023-04-01T03:59:11;1.25;;;0.22;;
57155;SDS011;43023;59.928;10.682;2023-04-01T04:01:37;0.88;;;0.40;;
57155;SDS011;43023;59.928;10.682;2023-04-01T04:04:04;1.65;;;0.40;;
57155;SDS011;43023;59.928;10.682;2023-04-01T04:06:30;1.55;;;0.43;;
57155;SDS011;43023;59.928;10.682;2023-04-01T04:08:57;0.50;;;0.47;;
57155;SDS011;43023;59.928;10.682;2023-04-01T04:11:23;0.60;;;0.40;;
57155;SDS011;43023;59.928;10.682;2023-04-01T04:13:49;1.33;;;0.60;;
57155;SDS011;43023;59.928;10.682;2023-04-01T04:16:16;0.57;;;0.30;;
57155;SDS011;43023;59.928;10.682;2023-04-01T04:18:43;0.45;;;0.32;;
57155;SDS011;43023;59.928;10.682;2023-04-01T04:21:13;0.55;;;0.40;;
57155;SDS011;43023;59.928;10.682;2023-04-01T04:23:39;0.43;;;0.40;;
57155;SDS011;43023;59.928;10.682;2023-04-01T04:26:06;0.47;;;0.47;;
57155;SDS011;43023;59.928;10.682;2023-04-01T04:28:33;1.92;;;0.35;;
57155;SDS011;43023;59.928;10.682;2023-04-01T04:31:00;2.15;;;0.55;;
57155;SDS011;43023;59.928;10.682;2023-04-01T04:33:26;0.55;;;0.55;;
57155;SDS011;43023;59.928;10.682;2023-04-01T04:35:54;1.88;;;0.60;;
57155;SDS011;43023;59.928;10.682;2023-04-01T04:38:21;2.30;;;0.40;;
57155;SDS011;43023;59.928;10.682;2023-04-01T04:40:47;0.77;;;0.50;;
57155;SDS011;43023;59.928;10.682;2023-04-01T04:43:14;0.57;;;0.40;;
57155;SDS011;43023;59.928;10.682;2023-04-01T04:45:40;2.03;;;0.70;;
57155;SDS011;43023;59.928;10.682;2023-04-01T04:48:10;1.17;;;0.88;;
57155;SDS011;43023;59.928;10.682;2023-04-01T04:50:39;0.77;;;0.77;;
57155;SDS011;43023;59.928;10.682;2023-04-01T04:53:05;0.95;;;0.43;;
57155;SDS011;43023;59.928;10.682;2023-04-01T04:55:31;1.63;;;0.40;;
57155;SDS011;43023;59.928;10.682;2023-04-01T04:57:57;0.88;;;0.47;;
57155;SDS011;43023;59.928;10.682;2023-04-01T05:00:24;0.80;;;0.50;;
57155;SDS011;43023;59.928;10.682;2023-04-01T05:02:50;0.68;;;0.40;;
57155;SDS011;43023;59.928;10.682;2023-04-01T05:05:16;0.70;;;0.47;;
57155;SDS011;43023;59.928;10.682;2023-04-01T05:07:42;2.08;;;0.65;;
57155;SDS011;43023;59.928;10.682;2023-04-01T05:10:08;0.95;;;0.57;;
57155;SDS011;43023;59.928;10.682;2023-04-01T05:12:35;0.70;;;0.50;;
57155;SDS011;43023;59.928;10.682;2023-04-01T05:15:04;0.50;;;0.32;;
57155;SDS011;43023;59.928;10.682;2023-04-01T05:17:30;1.10;;;0.40;;
57155;SDS011;43023;59.928;10.682;2023-04-01T05:19:57;0.93;;;0.43;;
57155;SDS011;43023;59.928;10.682;2023-04-01T05:22:23;0.32;;;0.30;;
57155;SDS011;43023;59.928;10.682;2023-04-01T05:24:49;1.75;;;0.55;;
57155;SDS011;43023;59.928;10.682;2023-04-01T05:27:15;0.45;;;0.40;;
57155;SDS011;43023;59.928;10.682;2023-04-01T05:29:41;0.52;;;0.43;;
57155;SDS011;43023;59.928;10.682;2023-04-01T05:32:07;0.50;;;0.40;;
57155;SDS011;43023;59.928;10.682;2023-04-01T05:34:33;1.25;;;0.63;;
57155;SDS011;43023;59.928;10.682;2023-04-01T05:36:59;0.38;;;0.38;;
57155;SDS011;43023;59.928;10.682;2023-04-01T05:39:25;0.43;;;0.30;;
57155;SDS011;43023;59.928;10.682;2023-04-01T05:41:52;0.40;;;0.40;;
57155;SDS011;43023;59.928;10.682;2023-04-01T05:44:18;0.73;;;0.32;;
57155;SDS011;43023;59.928;10.682;2023-04-01T05:46:44;1.02;;;0.35;;
57155;SDS011;43023;59.928;10.682;2023-04-01T05:49:10;1.95;;;0.35;;
57155;SDS011;43023;59.928;10.682;2023-04-01T05:51:36;1.13;;;0.45;;
57155;SDS011;43023;59.928;10.682;2023-04-01T05:54:03;0.55;;;0.30;;
57155;SDS011;43023;59.928;10.682;2023-04-01T05:56:29;0.60;;;0.47;;
57155;SDS011;43023;59.928;10.682;2023-04-01T05:58:56;1.30;;;0.40;;
57155;SDS011;43023;59.928;10.682;2023-04-01T06:01:22;0.45;;;0.28;;
57155;SDS011;43023;59.928;10.682;2023-04-01T06:03:48;1.23;;;0.40;;
57155;SDS011;43023;59.928;10.682;2023-04-01T06:06:15;2.25;;;0.40;;
57155;SDS011;43023;59.928;10.682;2023-04-01T06:08:42;1.27;;;0.47;;
57155;SDS011;43023;59.928;10.682;2023-04-01T06:18:57;2.63;;;0.20;;
57155;SDS011;43023;59.928;10.682;2023-04-01T06:24:34;1.42;;;0.30;;
57155;SDS011;43023;59.928;10.682;2023-04-01T06:27:07;1.45;;;0.28;;
57155;SDS011;43023;59.928;10.682;2023-04-01T06:29:44;2.85;;;0.30;;
57155;SDS011;43023;59.928;10.682;2023-04-01T06:40:04;3.83;;;0.38;;
57155;SDS011;43023;59.928;10.682;2023-04-01T06:45:20;0.50;;;0.30;;
57155;SDS011;43023;59.928;10.682;2023-04-01T06:50:40;2.03;;;0.45;;
57155;SDS011;43023;59.928;10.682;2023-04-01T06:53:18;2.20;;;0.68;;
57155;SDS011;43023;59.928;10.682;2023-04-01T06:55:50;1.27;;;0.35;;
57155;SDS011;43023;59.928;10.682;2023-04-01T06:58:20;0.52;;;0.52;;
57155;SDS011;43023;59.928;10.682;2023-04-01T07:00:48;1.60;;;0.70;;
57155;SDS011;43023;59.928;10.682;2023-04-01T07:05:43;0.40;;;0.40;;
57155;SDS011;43023;59.928;10.682;2023-04-01T07:08:11;3.33;;;0.77;;
57155;SDS011;43023;59.928;10.682;2023-04-01T07:13:25;13.95;;;1.23;;
57155;SDS011;43023;59.928;10.682;2023-04-01T07:16:12;7.47;;;0.75;;
57155;SDS011;43023;59.928;10.682;2023-04-01T07:18:45;1.27;;;0.63;;
57155;SDS011;43023;59.928;10.682;2023-04-01T07:21:26;1.17;;;0.70;;
57155;SDS011;43023;59.928;10.682;2023-04-01T07:23:56;6.65;;;1.15;;
57155;SDS011;43023;59.928;10.682;2023-04-01T07:26:23;3.28;;;1.00;;
57155;SDS011;43023;59.928;10.682;2023-04-01T07:28:52;3.80;;;0.52;;
57155;SDS011;43023;59.928;10.682;2023-04-01T07:39:44;5.40;;;0.57;;
57155;SDS011;43023;59.928;10.682;2023-04-01T07:47:39;2.95;;;0.40;;
57155;SDS011;43023;59.928;10.682;2023-04-01T07:55:42;0.60;;;0.60;;
57155;SDS011;43023;59.928;10.682;2023-04-01T08:00:42;3.22;;;0.77;;
57155;SDS011;43023;59.928;10.682;2023-04-01T08:05:55;0.95;;;0.57;;
57155;SDS011;43023;59.928;10.682;2023-04-01T08:08:29;2.42;;;0.32;;
57155;SDS011;43023;59.928;10.682;2023-04-01T08:16:37;0.75;;;0.38;;
57155;SDS011;43023;59.928;10.682;2023-04-01T08:21:51;2.05;;;0.43;;
57155;SDS011;43023;59.928;10.682;2023-04-01T08:26:50;2.45;;;0.40;;
57155;SDS011;43023;59.928;10.682;2023-04-01T08:29:21;1.83;;;0.43;;
57155;SDS011;43023;59.928;10.682;2023-04-01T08:34:15;0.63;;;0.63;;
57155;SDS011;43023;59.928;10.682;2023-04-01T08:36:45;0.82;;;0.43;;
57155;SDS011;43023;59.928;10.682;2023-04-01T08:39:17;1.45;;;0.32;;
57155;SDS011;43023;59.928;10.682;2023-04-01T08:49:56;9.65;;;0.77;;
57155;SDS011;43023;59.928;10.682;2023-04-01T08:52:33;1.13;;;0.50;;
57155;SDS011;43023;59.928;10.682;2023-04-01T09:00:38;4.22;;;0.88;;
57155;SDS011;43023;59.928;10.682;2023-04-01T09:16:24;5.00;;;0.98;;
57155;SDS011;43023;59.928;10.682;2023-04-01T09:29:27;6.45;;;0.65;;
57155;SDS011;43023;59.928;10.682;2023-04-01T09:39:56;1.73;;;0.63;;
57155;SDS011;43023;59.928;10.682;2023-04-01T09:42:43;1.50;;;0.50;;
57155;SDS011;43023;59.928;10.682;2023-04-01T09:56:13;1.23;;;0.50;;
57155;SDS011;43023;59.928;10.682;2023-04-01T09:58:51;0.70;;;0.30;;
57155;SDS011;43023;59.928;10.682;2023-04-01T10:11:30;0.55;;;0.45;;
57155;SDS011;43023;59.928;10.682;2023-04-01T10:19:28;10.80;;;10.00;;
57155;SDS011;43023;59.928;10.682;2023-04-01T10:40:35;3.72;;;2.35;;
57155;SDS011;43023;59.928;10.682;2023-04-01T10:48:12;4.50;;;1.52;;
57155;SDS011;43023;59.928;10.682;2023-04-01T10:53:54;8.40;;;1.38;;
57155;SDS011;43023;59.928;10.682;2023-04-01T11:06:20;3.97;;;1.10;;
57155;SDS011;43023;59.928;10.682;2023-04-01T11:23:50;2.67;;;0.60;;
57155;SDS011;43023;59.928;10.682;2023-04-01T11:54:14;16.17;;;2.88;;
57155;SDS011;43023;59.928;10.682;2023-04-01T11:59:31;16.40;;;2.83;;
57155;SDS011;43023;59.928;10.682;2023-04-01T12:05:17;18.35;;;3.97;;
57155;SDS011;43023;59.928;10.682;2023-04-01T12:13:24;12.85;;;2.97;;
57155;SDS011;43023;59.928;10.682;2023-04-01T12:31:27;11.57;;;2.35;;
57155;SDS011;43023;59.928;10.682;2023-04-01T12:39:33;8.13;;;2.00;;
57155;SDS011;43023;59.928;10.682;2023-04-01T12:52:00;10.45;;;2.22;;
57155;SDS011;43023;59.928;10.682;2023-04-01T13:05:24;9.18;;;1.88;;
57155;SDS011;43023;59.928;10.682;2023-04-01T13:16:26;9.60;;;1.35;;
57155;SDS011;43023;59.928;10.682;2023-04-01T13:29:14;12.10;;;2.08;;
57155;SDS011;43023;59.928;10.682;2023-04-01T13:32:00;9.05;;;2.55;;
57155;SDS011;43023;59.928;10.682;2023-04-01T13:34:38;10.15;;;2.25;;
57155;SDS011;43023;59.928;10.682;2023-04-01T13:37:13;12.98;;;2.30;;
57155;SDS011;43023;59.928;10.682;2023-04-01T13:42:36;7.45;;;1.40;;
57155;SDS011;43023;59.928;10.682;2023-04-01T13:45:17;6.95;;;1.63;;
57155;SDS011;43023;59.928;10.682;2023-04-01T13:47:55;3.67;;;1.40;;
57155;SDS011;43023;59.928;10.682;2023-04-01T14:00:50;7.22;;;1.98;;
57155;SDS011;43023;59.928;10.682;2023-04-01T14:03:27;4.93;;;1.58;;
57155;SDS011;43023;59.928;10.682;2023-04-01T14:06:10;3.17;;;0.95;;
57155;SDS011;43023;59.928;10.682;2023-04-01T14:09:25;7.93;;;1.35;;
57155;SDS011;43023;59.928;10.682;2023-04-01T14:16:52;3.28;;;1.02;;
57155;SDS011;43023;59.928;10.682;2023-04-01T14:19:23;2.65;;;0.70;;
57155;SDS011;43023;59.928;10.682;2023-04-01T14:27:16;2.72;;;1.02;;
57155;SDS011;43023;59.928;10.682;2023-04-01T14:37:16;11.00;;;1.23;;
57155;SDS011;43023;59.928;10.682;2023-04-01T14:50:14;3.30;;;0.90;;
57155;SDS011;43023;59.928;10.682;2023-04-01T15:00:39;5.18;;;0.88;;
57155;SDS011;43023;59.928;10.682;2023-04-01T15:05:55;7.70;;;1.00;;
57155;SDS011;43023;59.928;10.682;2023-04-01T15:08:26;6.68;;;0.82;;
57155;SDS011;43023;59.928;10.682;2023-04-01T15:18:41;2.28;;;1.00;;
57155;SDS011;43023;59.928;10.682;2023-04-01T15:36:42;1.23;;;0.43;;
57155;SDS011;43023;59.928;10.682;2023-04-01T15:45:26;2.00;;;0.60;;
57155;SDS011;43023;59.928;10.682;2023-04-01T15:47:36;1.63;;;0.40;;
57155;SDS011;43023;59.928;10.682;2023-04-01T15:52:56;4.13;;;0.68;;
57155;SDS011;43023;59.928;10.682;2023-04-01T15:55:30;4.63;;;0.82;;
57155;SDS011;43023;59.928;10.682;2023-04-01T15:58:17;1.77;;;0.75;;
57155;SDS011;43023;59.928;10.682;2023-04-01T16:03:30;1.45;;;0.60;;
57155;SDS011;43023;59.928;10.682;2023-04-01T16:06:14;3.00;;;0.77;;
57155;SDS011;43023;59.928;10.682;2023-04-01T16:11:35;2.17;;;0.30;;
57155;SDS011;43023;59.928;10.682;2023-04-01T16:16:58;2.40;;;0.47;;
57155;SDS011;43023;59.928;10.682;2023-04-01T16:19:30;16.35;;;1.13;;
57155;SDS011;43023;59.928;10.682;2023-04-01T16:22:00;3.30;;;0.52;;
57155;SDS011;43023;59.928;10.682;2023-04-01T16:24:45;6.65;;;0.50;;
57155;SDS011;43023;59.928;10.682;2023-04-01T16:29:48;2.35;;;0.40;;
57155;SDS011;43023;59.928;10.682;2023-04-01T16:32:17;2.60;;;0.30;;
57155;SDS011;43023;59.928;10.682;2023-04-01T16:34:54;6.32;;;0.73;;
57155;SDS011;43023;59.928;10.682;2023-04-01T16:37:45;2.35;;;0.60;;
57155;SDS011;43023;59.928;10.682;2023-04-01T16:40:14;1.75;;;0.75;;
57155;SDS011;43023;59.928;10.682;2023-04-01T16:45:36;2.42;;;0.57;;
57155;SDS011;43023;59.928;10.682;2023-04-01T16:51:17;3.67;;;0.40;;
57155;SDS011;43023;59.928;10.682;2023-04-01T16:53:47;5.00;;;0.70;;
57155;SDS011;43023;59.928;10.682;2023-04-01T16:56:11;1.80;;;0.30;;
57155;SDS011;43023;59.928;10.682;2023-04-01T16:58:43;0.73;;;0.22;;
57155;SDS011;43023;59.928;10.682;2023-04-01T17:01:20;3.60;;;0.40;;
57155;SDS011;43023;59.928;10.682;2023-04-01T17:11:34;0.80;;;0.40;;
57155;SDS011;43023;59.928;10.682;2023-04-01T17:26:58;0.38;;;0.30;;
57155;SDS011;43023;59.928;10.682;2023-04-01T17:32:16;5.10;;;0.82;;
57155;SDS011;43023;59.928;10.682;2023-04-01T17:34:46;1.55;;;0.60;;
57155;SDS011;43023;59.928;10.682;2023-04-01T17:45:02;1.08;;;0.60;;
57155;SDS011;43023;59.928;10.682;2023-04-01T17:50:22;1.70;;;0.40;;
57155;SDS011;43023;59.928;10.682;2023-04-01T17:58:03;4.55;;;0.60;;
57155;SDS011;43023;59.928;10.682;2023-04-01T18:05:57;1.48;;;0.40;;
57155;SDS011;43023;59.928;10.682;2023-04-01T18:11:05;4.10;;;0.60;;
57155;SDS011;43023;59.928;10.682;2023-04-01T18:16:42;1.75;;;0.40;;
57155;SDS011;43023;59.928;10.682;2023-04-01T18:19:59;0.98;;;0.45;;
57155;SDS011;43023;59.928;10.682;2023-04-01T18:22:02;2.47;;;0.85;;
57155;SDS011;43023;59.928;10.682;2023-04-01T18:27:38;2.03;;;0.57;;
57155;SDS011;43023;59.928;10.682;2023-04-01T18:30:11;1.15;;;0.93;;
57155;SDS011;43023;59.928;10.682;2023-04-01T18:32:43;2.22;;;0.40;;
57155;SDS011;43023;59.928;10.682;2023-04-01T18:35:19;0.70;;;0.60;;
57155;SDS011;43023;59.928;10.682;2023-04-01T18:43:12;1.65;;;0.55;;
57155;SDS011;43023;59.928;10.682;2023-04-01T18:45:57;0.93;;;0.40;;
57155;SDS011;43023;59.928;10.682;2023-04-01T18:51:16;0.80;;;0.60;;
57155;SDS011;43023;59.928;10.682;2023-04-01T18:56:30;0.75;;;0.60;;
57155;SDS011;43023;59.928;10.682;2023-04-01T18:58:59;1.23;;;0.73;;
57155;SDS011;43023;59.928;10.682;2023-04-01T19:01:47;2.30;;;0.80;;
57155;SDS011;43023;59.928;10.682;2023-04-01T19:04:19;1.77;;;1.20;;
57155;SDS011;43023;59.928;10.682;2023-04-01T19:06:48;3.03;;;0.80;;
57155;SDS011;43023;59.928;10.682;2023-04-01T19:09:17;0.82;;;0.80;;
57155;SDS011;43023;59.928;10.682;2023-04-01T19:11:46;1.48;;;0.65;;
57155;SDS011;43023;59.928;10.682;2023-04-01T19:14:23;0.75;;;0.70;;
57155;SDS011;43023;59.928;10.682;2023-04-01T19:17:05;2.47;;;0.60;;
57155;SDS011;43023;59.928;10.682;2023-04-01T19:22:21;2.50;;;0.95;;
57155;SDS011;43023;59.928;10.682;2023-04-01T19:27:26;1.92;;;1.00;;
57155;SDS011;43023;59.928;10.682;2023-04-01T19:37:38;5.00;;;1.23;;
57155;SDS011;43023;59.928;10.682;2023-04-01T19:42:48;5.22;;;0.93;;
57155;SDS011;43023;59.928;10.682;2023-04-01T19:48:00;5.57;;;0.93;;
57155;SDS011;43023;59.928;10.682;2023-04-01T19:50:39;9.35;;;1.20;;
57155;SDS011;43023;59.928;10.682;2023-04-01T19:53:19;4.22;;;1.35;;
57155;SDS011;43023;59.928;10.682;2023-04-01T19:55:53;7.03;;;1.02;;
57155;SDS011;43023;59.928;10.682;2023-04-01T19:58:26;15.75;;;1.15;;
57155;SDS011;43023;59.928;10.682;2023-04-01T20:00:54;6.95;;;1.48;;
57155;SDS011;43023;59.928;10.682;2023-04-01T20:03:25;2.35;;;1.00;;
57155;SDS011;43023;59.928;10.682;2023-04-01T20:16:11;3.35;;;1.00;;
57155;SDS011;43023;59.928;10.682;2023-04-01T20:18:54;7.05;;;1.80;;
57155;SDS011;43023;59.928;10.682;2023-04-01T20:23:52;6.50;;;2.20;;
57155;SDS011;43023;59.928;10.682;2023-04-01T20:26:30;7.10;;;2.22;;
57155;SDS011;43023;59.928;10.682;2023-04-01T20:31:31;8.70;;;2.35;;
57155;SDS011;43023;59.928;10.682;2023-04-01T20:39:15;7.75;;;2.47;;
57155;SDS011;43023;59.928;10.682;2023-04-01T20:54:44;8.07;;;2.10;;
57155;SDS011;43023;59.928;10.682;2023-04-01T21:07:28;3.45;;;1.40;;
57155;SDS011;43023;59.928;10.682;2023-04-01T21:10:05;2.15;;;1.27;;
57155;SDS011;43023;59.928;10.682;2023-04-01T21:12:46;3.60;;;1.35;;
57155;SDS011;43023;59.928;10.682;2023-04-01T21:33:36;6.00;;;1.50;;
57155;SDS011;43023;59.928;10.682;2023-04-01T21:41:18;7.35;;;1.83;;
57155;SDS011;43023;59.928;10.682;2023-04-01T22:07:17;8.70;;;2.15;;
57155;SDS011;43023;59.928;10.682;2023-04-01T22:12:31;3.97;;;1.30;;
57155;SDS011;43023;59.928;10.682;2023-04-01T22:30:41;3.10;;;1.25;;
57155;SDS011;43023;59.928;10.682;2023-04-01T22:33:14;4.25;;;1.00;;
57155;SDS011;43023;59.928;10.682;2023-04-01T22:36:03;3.58;;;1.00;;
57155;SDS011;43023;59.928;10.682;2023-04-01T22:38:39;1.73;;;0.85;;
57155;SDS011;43023;59.928;10.682;2023-04-01T22:41:24;3.53;;;1.73;;
57155;SDS011;43023;59.928;10.682;2023-04-01T22:43:55;4.93;;;1.10;;
57155;SDS011;43023;59.928;10.682;2023-04-01T22:54:23;2.60;;;1.00;;
57155;SDS011;43023;59.928;10.682;2023-04-01T22:56:57;1.17;;;0.77;;
57155;SDS011;43023;59.928;10.682;2023-04-01T23:00:01;5.20;;;1.30;;
57155;SDS011;43023;59.928;10.682;2023-04-01T23:04:45;1.25;;;0.90;;
57155;SDS011;43023;59.928;10.682;2023-04-01T23:10:00;4.18;;;1.08;;
57155;SDS011;43023;59.928;10.682;2023-04-01T23:12:27;1.05;;;0.80;;
57155;SDS011;43023;59.928;10.682;2023-04-01T23:14:55;2.17;;;0.85;;
57155;SDS011;43023;59.928;10.682;2023-04-01T23:25:40;1.45;;;0.50;;
57155;SDS011;43023;59.928;10.682;2023-04-01T23:30:55;1.80;;;0.70;;
57155;SDS011;43023;59.928;10.682;2023-04-01T23:33:22;0.80;;;0.77;;
57155;SDS011;43023;59.928;10.682;2023-04-01T23:35:56;1.60;;;0.52;;
57155;SDS011;43023;59.928;10.682;2023-04-01T23:38:30;1.08;;;0.70;;
57155;SDS011;43023;59.928;10.682;2023-04-01T23:40:56;3.42;;;0.70;;
57155;SDS011;43023;59.928;10.682;2023-04-01T23:43:24;0.40;;;0.32;;
57155;SDS011;43023;59.928;10.682;2023-04-01T23:45:52;1.75;;;0.43;;
57155;SDS011;43023;59.928;10.682;2023-04-01T23:48:18;3.78;;;0.43;;
57155;SDS011;43023;59.928;10.682;2023-04-01T23:50:45;0.85;;;0.73;;
57155;SDS011;43023;59.928;10.682;2023-04-01T23:53:19;1.05;;;0.73;;
57155;SDS011;43023;59.928;10.682;2023-04-01T23:55:46;2.53;;;0.75;;
57155;SDS011;43023;59.928;10.682;2023-04-01T23:58:21;2.80;;;0.70;;
